Time;durP1;ratioP1;P1;durP2;ratioP2;P2;SDS_P1;SDS_P2;PMS_P1;PMS_P2;Temp;Humidity;BMP_temperature;BMP_pressure;BME280_temperature;BME280_humidity;BME280_pressure;Samples;Min_cycle;Max_cycle;Signal;HPM_P1;HPM_P2
2022/07/18 00:01:19;;;;;;;2.15;1.30;;;17.80;80.70;;;;;;5072274;28;20209;-66
2022/07/18 00:03:46;;;;;;;3.75;1.35;;;17.80;81.20;;;;;;5072185;28;20891;-65
2022/07/18 00:06:12;;;;;;;1.52;1.00;;;17.70;81.60;;;;;;5071916;28;20699;-65
2022/07/18 00:08:39;;;;;;;1.17;0.93;;;17.70;81.90;;;;;;5071727;28;20228;-65
2022/07/18 00:11:06;;;;;;;1.83;1.10;;;17.60;81.80;;;;;;5072156;28;20236;-63
2022/07/18 00:13:33;;;;;;;1.55;0.90;;;17.70;81.60;;;;;;5072056;28;20212;-65
2022/07/18 00:15:59;;;;;;;3.40;1.20;;;17.60;81.30;;;;;;5072009;28;20203;-65
2022/07/18 00:18:27;;;;;;;2.65;1.17;;;17.60;81.80;;;;;;5071868;28;20666;-65
2022/07/18 00:20:54;;;;;;;1.60;1.20;;;17.60;82.00;;;;;;5072061;28;20211;-65
2022/07/18 00:23:21;;;;;;;2.08;1.10;;;17.50;82.40;;;;;;5072053;28;20205;-66
2022/07/18 00:25:47;;;;;;;2.22;1.05;;;17.50;82.70;;;;;;5072148;28;20201;-66
2022/07/18 00:28:14;;;;;;;4.28;1.20;;;17.40;83.10;;;;;;5073034;28;20221;-66
2022/07/18 00:30:41;;;;;;;2.15;1.17;;;17.40;83.80;;;;;;5073415;28;20205;-65
2022/07/18 00:33:08;;;;;;;1.38;0.80;;;17.40;83.80;;;;;;5073689;28;20251;-66
2022/07/18 00:35:36;;;;;;;3.85;1.30;;;17.40;83.30;;;;;;5073142;28;20235;-66
2022/07/18 00:38:04;;;;;;;2.28;1.10;;;17.40;83.00;;;;;;5073232;28;20249;-65
2022/07/18 00:40:31;;;;;;;3.38;1.00;;;17.30;82.80;;;;;;5071992;28;20211;-66
2022/07/18 00:42:58;;;;;;;2.37;1.43;;;17.40;83.00;;;;;;5072033;28;20201;-65
2022/07/18 00:45:25;;;;;;;2.63;1.48;;;17.40;83.30;;;;;;5071640;28;20212;-65
2022/07/18 00:47:52;;;;;;;1.65;1.30;;;17.40;83.90;;;;;;5071218;28;20232;-65
2022/07/18 00:50:19;;;;;;;1.90;1.13;;;17.30;84.30;;;;;;5070884;28;20295;-66
2022/07/18 00:52:47;;;;;;;1.70;1.45;;;17.30;85.10;;;;;;5070765;28;20204;-65
2022/07/18 00:55:14;;;;;;;1.73;1.20;;;17.30;86.00;;;;;;5070951;28;20239;-65
2022/07/18 00:57:42;;;;;;;1.83;1.13;;;17.30;87.10;;;;;;5070682;28;20266;-65
2022/07/18 01:02:57;;;;;;;2.05;1.20;;;17.10;88.90;;;;;;5070784;28;20270;-65
2022/07/18 01:05:24;;;;;;;2.13;1.20;;;17.10;89.00;;;;;;5070628;28;20620;-65
2022/07/18 01:07:52;;;;;;;1.98;1.30;;;17.10;89.90;;;;;;5070696;28;20232;-65
2022/07/18 01:10:19;;;;;;;3.33;1.13;;;17.00;89.70;;;;;;5070505;28;20644;-65
2022/07/18 01:12:46;;;;;;;1.65;1.05;;;16.90;89.50;;;;;;5070521;28;20640;-65
2022/07/18 01:15:14;;;;;;;1.60;1.20;;;16.90;89.80;;;;;;5070699;28;20209;-65
2022/07/18 01:17:40;;;;;;;5.53;1.40;;;16.80;90.20;;;;;;5070612;28;20639;-65
2022/07/18 01:20:08;;;;;;;1.85;1.27;;;16.70;90.50;;;;;;5070341;28;20216;-65
2022/07/18 01:22:38;;;;;;;1.50;1.33;;;16.60;90.70;;;;;;5070531;28;20297;-65
2022/07/18 01:25:06;;;;;;;1.73;1.15;;;16.50;91.00;;;;;;5070267;28;20699;-64
2022/07/18 01:27:33;;;;;;;2.30;1.20;;;16.40;91.30;;;;;;5070392;28;20236;-63
2022/07/18 01:29:59;;;;;;;4.17;1.37;;;16.30;91.40;;;;;;5070192;28;20278;-63
2022/07/18 01:32:26;;;;;;;1.53;1.10;;;16.30;91.60;;;;;;5070419;28;20213;-63
2022/07/18 01:34:53;;;;;;;2.70;1.00;;;16.30;91.70;;;;;;5070174;28;20259;-64
2022/07/18 01:37:20;;;;;;;1.00;0.90;;;16.30;91.90;;;;;;5070127;28;20267;-63
2022/07/18 01:39:48;;;;;;;1.70;1.20;;;16.30;92.30;;;;;;5069842;28;20216;-63
2022/07/18 01:42:17;;;;;;;3.80;1.00;;;16.20;92.60;;;;;;5070356;28;20209;-64
2022/07/18 01:44:44;;;;;;;1.87;0.90;;;16.10;92.80;;;;;;5070727;28;20209;-64
2022/07/18 01:47:12;;;;;;;1.83;1.27;;;16.00;93.20;;;;;;5073563;28;20217;-63
2022/07/18 01:49:39;;;;;;;2.90;1.42;;;16.00;93.20;;;;;;5038526;28;1023614;-64
2022/07/18 01:52:07;;;;;;;1.50;1.20;;;15.90;93.20;;;;;;5075442;28;20212;-64
2022/07/18 01:54:35;;;;;;;1.60;1.10;;;15.80;93.30;;;;;;5075738;28;20216;-64
2022/07/18 01:57:05;;;;;;;2.97;1.10;;;15.80;93.20;;;;;;5075264;28;20684;-64
2022/07/18 01:59:32;;;;;;;1.05;0.90;;;15.80;93.20;;;;;;5075068;28;20259;-64
2022/07/18 02:01:59;;;;;;;1.50;1.20;;;15.80;93.10;;;;;;5075521;28;20204;-63
2022/07/18 02:07:07;;;;;;;2.53;1.03;;;15.70;93.30;;;;;;5075218;28;20228;-64
2022/07/18 02:09:33;;;;;;;2.40;0.97;;;15.60;93.70;;;;;;5075741;28;20270;-63
2022/07/18 02:12:00;;;;;;;1.13;0.93;;;15.50;93.90;;;;;;5075521;28;20235;-63
2022/07/18 02:14:28;;;;;;;2.83;1.33;;;15.50;93.70;;;;;;5075289;28;20642;-63
2022/07/18 02:16:55;;;;;;;1.47;1.07;;;15.50;93.60;;;;;;5075449;28;20209;-63
2022/07/18 02:19:21;;;;;;;4.60;1.20;;;15.30;93.50;;;;;;5075152;28;20228;-62
2022/07/18 02:21:48;;;;;;;1.43;0.90;;;15.40;93.60;;;;;;5075206;28;20560;-63
2022/07/18 02:24:14;;;;;;;2.10;1.20;;;15.40;93.50;;;;;;5074953;28;20277;-63
2022/07/18 02:26:41;;;;;;;1.43;1.03;;;15.50;93.30;;;;;;5075117;28;20224;-63
2022/07/18 02:29:08;;;;;;;3.53;1.20;;;15.40;93.30;;;;;;5074565;28;20221;-62
2022/07/18 02:31:36;;;;;;;2.47;1.00;;;15.40;93.30;;;;;;5074733;28;20208;-62
2022/07/18 02:34:09;;;;;;;2.63;1.33;;;15.50;93.10;;;;;;5074347;28;20654;-63
2022/07/18 02:36:36;;;;;;;4.03;1.20;;;15.50;92.90;;;;;;5074371;28;20605;-63
2022/07/18 02:39:03;;;;;;;2.43;1.10;;;15.60;92.90;;;;;;5074071;28;20228;-63
2022/07/18 02:41:30;;;;;;;2.43;0.90;;;15.60;92.70;;;;;;5074138;28;20259;-62
2022/07/18 02:43:57;;;;;;;1.10;0.80;;;15.60;92.70;;;;;;5073829;28;20731;-63
2022/07/18 02:46:24;;;;;;;2.13;0.80;;;15.60;92.70;;;;;;5073834;28;20615;-64
2022/07/18 02:48:52;;;;;;;1.33;0.80;;;15.60;92.70;;;;;;5073597;28;20323;-63
2022/07/18 02:51:18;;;;;;;1.67;0.93;;;15.50;92.80;;;;;;5073936;28;20205;-64
2022/07/18 02:53:45;;;;;;;1.63;0.90;;;15.50;93.00;;;;;;5073921;28;20211;-64
2022/07/18 02:56:12;;;;;;;2.27;1.27;;;15.50;93.40;;;;;;5073769;28;20258;-63
2022/07/18 02:58:39;;;;;;;2.23;1.20;;;15.40;93.90;;;;;;5072991;28;20221;-64
2022/07/18 03:01:06;;;;;;;1.80;1.17;;;15.30;94.40;;;;;;5073352;28;20278;-62
2022/07/18 03:03:33;;;;;;;2.43;1.20;;;15.30;94.80;;;;;;5073649;28;20596;-64
2022/07/18 03:06:01;;;;;;;3.40;1.10;;;15.20;95.00;;;;;;5073778;28;20205;-64
2022/07/18 03:08:27;;;;;;;1.30;1.10;;;15.10;95.20;;;;;;5073324;28;20228;-65
2022/07/18 03:10:54;;;;;;;1.40;1.07;;;15.00;95.30;;;;;;5073350;28;20258;-64
2022/07/18 03:13:21;;;;;;;2.63;1.03;;;14.90;95.50;;;;;;5073332;28;20208;-64
2022/07/18 03:15:48;;;;;;;3.27;1.03;;;14.90;96.00;;;;;;5073381;28;20212;-64
2022/07/18 03:18:14;;;;;;;2.10;1.03;;;14.90;95.70;;;;;;5073331;28;20624;-64
2022/07/18 03:20:41;;;;;;;1.63;1.13;;;14.90;96.20;;;;;;5073388;28;20205;-64
2022/07/18 03:23:09;;;;;;;1.77;1.00;;;14.80;96.40;;;;;;5073348;28;20205;-65
2022/07/18 03:25:36;;;;;;;2.60;1.10;;;14.80;96.60;;;;;;5073644;28;20262;-65
2022/07/18 03:28:03;;;;;;;8.37;4.50;;;14.70;96.80;;;;;;5073269;28;20324;-64
2022/07/18 03:30:30;;;;;;;6.07;2.63;;;14.70;97.10;;;;;;5072878;28;20643;-64
2022/07/18 03:32:57;;;;;;;2.40;1.40;;;14.60;97.10;;;;;;5073116;28;20204;-65
2022/07/18 03:35:23;;;;;;;3.13;1.20;;;14.60;97.40;;;;;;5072939;28;20205;-65
2022/07/18 03:37:50;;;;;;;1.63;1.10;;;14.60;97.40;;;;;;5072743;28;20243;-64
2022/07/18 03:40:18;;;;;;;3.87;1.40;;;14.50;97.50;;;;;;5072468;28;20208;-65
2022/07/18 03:42:45;;;;;;;3.00;1.50;;;14.50;97.60;;;;;;5072519;28;20673;-64
2022/07/18 03:45:11;;;;;;;2.13;1.20;;;14.50;97.70;;;;;;5072468;28;20669;-64
2022/07/18 03:47:41;;;;;;;1.93;1.20;;;14.50;97.80;;;;;;5072687;28;20708;-64
2022/07/18 03:50:09;;;;;;;1.73;1.10;;;14.50;97.80;;;;;;5072454;28;20220;-64
2022/07/18 03:52:35;;;;;;;1.20;0.90;;;14.60;97.80;;;;;;5072560;28;20205;-65
2022/07/18 03:55:03;;;;;;;8.17;1.30;;;14.60;97.70;;;;;;5072376;28;20634;-64
2022/07/18 03:57:31;;;;;;;1.87;0.90;;;14.70;97.80;;;;;;5072583;28;20413;-64
2022/07/18 03:59:57;;;;;;;2.17;1.20;;;14.70;97.80;;;;;;5072345;28;20520;-64
2022/07/18 04:02:24;;;;;;;2.63;1.10;;;14.70;97.70;;;;;;5072345;28;20205;-64
2022/07/18 04:04:51;;;;;;;2.53;1.10;;;14.80;97.60;;;;;;5072331;28;20235;-64
2022/07/18 04:07:17;;;;;;;1.67;1.17;;;14.90;97.50;;;;;;5072232;28;20228;-64
2022/07/18 04:09:44;;;;;;;1.50;1.00;;;14.90;97.20;;;;;;5071755;28;20260;-64
2022/07/18 04:12:11;;;;;;;2.50;1.23;;;15.00;97.10;;;;;;5072308;28;20205;-63
2022/07/18 04:14:39;;;;;;;3.10;1.30;;;15.10;97.00;;;;;;5072228;28;20299;-64
2022/07/18 04:17:06;;;;;;;2.23;1.30;;;15.10;96.70;;;;;;5072232;28;20213;-63
2022/07/18 04:19:34;;;;;;;3.03;1.47;;;15.20;96.50;;;;;;5071888;28;20225;-64
2022/07/18 04:22:00;;;;;;;2.20;1.10;;;15.20;96.30;;;;;;5072120;28;20212;-64
2022/07/18 04:24:27;;;;;;;1.73;1.30;;;15.30;96.20;;;;;;5071905;28;20209;-63
2022/07/18 04:26:54;;;;;;;2.40;1.00;;;15.30;95.90;;;;;;5071877;28;20638;-63
2022/07/18 04:29:20;;;;;;;1.40;1.17;;;15.40;95.70;;;;;;5071642;28;20228;-64
2022/07/18 04:31:48;;;;;;;2.83;1.40;;;15.40;95.60;;;;;;5071809;28;20668;-63
2022/07/18 04:34:15;;;;;;;4.20;1.53;;;15.40;95.60;;;;;;5071937;28;20204;-63
2022/07/18 04:36:42;;;;;;;2.67;1.10;;;15.40;95.60;;;;;;5071709;28;20234;-63
2022/07/18 04:39:09;;;;;;;3.10;1.20;;;15.50;95.50;;;;;;5071342;28;20247;-63
2022/07/18 04:41:36;;;;;;;3.17;1.13;;;15.60;95.30;;;;;;5071905;28;20204;-64
2022/07/18 04:44:02;;;;;;;1.60;1.27;;;15.60;95.20;;;;;;5071814;28;20212;-63
2022/07/18 04:46:29;;;;;;;2.93;1.00;;;15.70;95.20;;;;;;5071576;28;20209;-64
2022/07/18 04:48:57;;;;;;;3.27;1.20;;;15.80;95.10;;;;;;5071367;28;20701;-63
2022/07/18 04:51:24;;;;;;;2.67;1.00;;;15.90;94.60;;;;;;5071419;28;20635;-63
2022/07/18 04:53:51;;;;;;;3.30;1.27;;;16.00;94.40;;;;;;5071824;28;20637;-63
2022/07/18 04:56:17;;;;;;;5.83;1.40;;;16.00;94.30;;;;;;5071663;28;20209;-64
2022/07/18 04:58:44;;;;;;;2.23;1.03;;;16.20;93.90;;;;;;5071683;28;20286;-64
2022/07/18 05:01:11;;;;;;;4.70;1.50;;;16.40;93.90;;;;;;5071564;28;20208;-64
2022/07/18 05:03:37;;;;;;;2.35;1.27;;;16.50;93.60;;;;;;5072100;28;20215;-64
2022/07/18 05:06:06;;;;;;;5.33;1.43;;;16.60;93.50;;;;;;5071740;28;20311;-65
2022/07/18 05:08:33;;;;;;;4.07;1.30;;;16.70;93.40;;;;;;5071537;28;20225;-63
2022/07/18 05:11:00;;;;;;;3.30;1.40;;;16.80;93.30;;;;;;5071381;28;20216;-64
2022/07/18 05:13:27;;;;;;;2.17;1.40;;;16.90;93.20;;;;;;5071519;28;20211;-64
2022/07/18 05:15:53;;;;;;;4.93;1.50;;;17.00;93.10;;;;;;5071595;28;20273;-64
2022/07/18 05:18:20;;;;;;;1.65;1.17;;;17.10;92.90;;;;;;5071267;28;20723;-65
2022/07/18 05:20:47;;;;;;;2.63;1.25;;;17.40;92.60;;;;;;5072772;28;20216;-65
2022/07/18 05:23:16;;;;;;;2.55;1.38;;;17.60;92.20;;;;;;5075542;28;20586;-65
2022/07/18 05:25:43;;;;;;;2.17;1.30;;;18.10;91.50;;;;;;5075508;28;20209;-64
2022/07/18 05:28:10;;;;;;;3.40;1.30;;;19.10;90.40;;;;;;5075472;28;20656;-65
2022/07/18 05:30:37;;;;;;;3.22;1.30;;;20.40;86.30;;;;;;5075244;28;20201;-64
2022/07/18 05:33:04;;;;;;;2.17;1.30;;;21.80;81.40;;;;;;5075291;28;20583;-64
2022/07/18 05:35:31;;;;;;;5.10;1.70;;;22.30;77.90;;;;;;5075513;28;20204;-63
2022/07/18 05:37:57;;;;;;;2.20;1.55;;;22.20;76.20;;;;;;5075222;28;20221;-64
2022/07/18 05:40:25;;;;;;;3.45;1.38;;;22.20;76.00;;;;;;5074885;28;20205;-64
2022/07/18 05:42:52;;;;;;;8.25;1.45;;;23.20;72.20;;;;;;5075141;28;20209;-64
2022/07/18 05:45:19;;;;;;;4.63;1.67;;;24.40;68.00;;;;;;5074873;28;20209;-64
2022/07/18 05:47:45;;;;;;;3.28;1.38;;;25.10;64.10;;;;;;5074667;28;20239;-63
2022/07/18 05:50:12;;;;;;;3.28;1.10;;;26.10;61.10;;;;;;5074987;28;20274;-62
2022/07/18 05:52:39;;;;;;;5.95;1.20;;;27.40;57.20;;;;;;5074829;28;20201;-63
2022/07/18 05:55:07;;;;;;;2.80;1.10;;;28.40;54.40;;;;;;5074725;28;20212;-63
2022/07/18 05:57:35;;;;;;;1.42;1.10;;;29.50;52.60;;;;;;5074841;28;20285;-59
2022/07/18 06:00:03;;;;;;;2.88;1.23;;;30.80;50.30;;;;;;5074214;28;20205;-66
2022/07/18 06:02:30;;;;;;;2.03;1.10;;;31.80;48.00;;;;;;5074696;28;20210;-62
2022/07/18 06:04:57;;;;;;;2.00;1.13;;;32.60;45.50;;;;;;5074667;28;20237;-62
2022/07/18 06:07:24;;;;;;;11.45;1.55;;;33.20;44.30;;;;;;5074204;28;20545;-62
2022/07/18 06:09:51;;;;;;;2.17;1.23;;;33.70;43.50;;;;;;5074030;28;20220;-62
2022/07/18 06:12:18;;;;;;;2.35;1.17;;;33.80;42.00;;;;;;5074303;28;20209;-63
2022/07/18 06:14:46;;;;;;;4.35;1.35;;;33.70;41.50;;;;;;5074223;28;20578;-62
2022/07/18 06:17:12;;;;;;;4.05;1.58;;;34.00;41.60;;;;;;5074714;28;20201;-62
2022/07/18 06:19:41;;;;;;;12.05;1.42;;;34.60;40.90;;;;;;5075807;28;20290;-62
2022/07/18 06:22:08;;;;;;;3.00;1.40;;;35.60;40.10;;;;;;5079644;28;20209;-62
2022/07/18 06:24:35;;;;;;;6.38;1.45;;;36.60;38.80;;;;;;5079283;28;20209;-62
2022/07/18 06:27:02;;;;;;;5.07;1.40;;;37.60;37.20;;;;;;5075826;28;20208;-63
2022/07/18 06:29:29;;;;;;;5.80;1.60;;;38.20;35.90;;;;;;5074867;28;20788;-63
2022/07/18 06:31:57;;;;;;;4.40;1.50;;;38.30;35.60;;;;;;5073919;28;20209;-62
2022/07/18 06:34:23;;;;;;;3.33;1.73;;;38.60;35.30;;;;;;5074766;28;20211;-62
2022/07/18 06:36:50;;;;;;;4.32;2.10;;;39.10;34.90;;;;;;5074862;28;20628;-62
2022/07/18 06:39:18;;;;;;;5.55;1.27;;;39.70;33.90;;;;;;5074047;28;20227;-62
2022/07/18 06:41:45;;;;;;;5.63;1.33;;;40.00;33.50;;;;;;5074016;28;20204;-62
2022/07/18 06:44:12;;;;;;;7.60;1.58;;;40.40;33.20;;;;;;5074236;28;20327;-65
2022/07/18 06:46:38;;;;;;;8.70;1.20;;;40.60;32.60;;;;;;5073930;28;20213;-62
2022/07/18 06:49:07;;;;;;;3.55;1.35;;;40.60;31.80;;;;;;5073621;28;20723;-62
2022/07/18 06:51:34;;;;;;;3.78;1.20;;;40.20;32.40;;;;;;5073838;28;20205;-63
2022/07/18 06:54:00;;;;;;;3.70;1.40;;;40.10;32.30;;;;;;5073686;28;20213;-61
2022/07/18 06:56:27;;;;;;;2.17;0.88;;;40.30;32.70;;;;;;5073539;28;20205;-62
2022/07/18 06:58:54;;;;;;;7.07;1.60;;;40.60;31.70;;;;;;5073763;28;20237;-62
2022/07/18 07:01:21;;;;;;;4.22;1.58;;;41.00;31.10;;;;;;5073594;28;20204;-62
2022/07/18 07:03:48;;;;;;;4.53;1.30;;;41.30;31.30;;;;;;5073818;28;20258;-63
2022/07/18 07:06:17;;;;;;;7.18;1.60;;;41.90;30.30;;;;;;5073511;28;20262;-63
2022/07/18 07:08:44;;;;;;;3.40;1.23;;;42.40;30.00;;;;;;5073535;28;20691;-62
2022/07/18 07:11:11;;;;;;;2.42;1.10;;;43.00;29.60;;;;;;5073995;28;20219;-63
2022/07/18 07:13:38;;;;;;;1.92;1.00;;;43.80;29.10;;;;;;5074646;28;20216;-63
2022/07/18 07:16:05;;;;;;;2.17;1.08;;;44.80;28.30;;;;;;5074427;28;20291;-63
2022/07/18 07:18:32;;;;;;;2.13;1.08;;;45.50;28.00;;;;;;5075087;28;20781;-63
2022/07/18 07:20:59;;;;;;;4.25;1.02;;;45.70;27.40;;;;;;5074071;28;20208;-62
2022/07/18 07:23:27;;;;;;;2.90;1.30;;;46.30;27.30;;;;;;5073703;28;20211;-62
2022/07/18 07:25:54;;;;;;;5.35;1.30;;;47.00;26.90;;;;;;5073467;28;20219;-63
2022/07/18 07:28:21;;;;;;;2.75;1.10;;;47.70;26.70;;;;;;5073088;28;20629;-63
2022/07/18 07:30:47;;;;;;;3.78;1.30;;;48.00;26.40;;;;;;5072927;28;20216;-63
2022/07/18 07:33:14;;;;;;;2.85;0.90;;;48.20;25.90;;;;;;5073175;28;20208;-63
2022/07/18 07:35:41;;;;;;;6.35;1.42;;;48.20;26.00;;;;;;5072782;28;20655;-63
2022/07/18 07:38:08;;;;;;;3.70;1.10;;;48.40;25.90;;;;;;5072745;28;20661;-63
2022/07/18 07:40:37;;;;;;;3.75;1.27;;;48.50;26.00;;;;;;5072593;28;20641;-63
2022/07/18 07:43:08;;;;;;;6.85;1.52;;;48.70;25.50;;;;;;5072545;28;20200;-63
2022/07/18 07:45:35;;;;;;;3.10;1.30;;;49.00;25.40;;;;;;5072964;28;20208;-63
2022/07/18 07:48:02;;;;;;;3.00;0.90;;;48.50;25.70;;;;;;5072652;28;20236;-63
2022/07/18 07:50:29;;;;;;;3.80;1.30;;;48.60;25.40;;;;;;5072485;28;20212;-63
2022/07/18 07:52:56;;;;;;;3.22;0.90;;;48.70;25.90;;;;;;5072857;28;20239;-63
2022/07/18 07:55:23;;;;;;;2.13;1.08;;;48.90;25.30;;;;;;5072494;28;20258;-63
2022/07/18 07:57:51;;;;;;;2.80;1.10;;;49.10;25.10;;;;;;5072442;28;20224;-63
2022/07/18 08:00:18;;;;;;;4.82;1.13;;;49.20;25.30;;;;;;5071887;28;20665;-63
2022/07/18 08:02:52;;;;;;;4.68;1.20;;;49.20;25.00;;;;;;5072507;28;20203;-63
2022/07/18 08:05:19;;;;;;;5.55;1.25;;;49.20;24.90;;;;;;5072130;28;20294;-63
2022/07/18 08:07:46;;;;;;;2.20;1.00;;;49.10;24.40;;;;;;5072347;28;20231;-63
2022/07/18 08:10:13;;;;;;;5.07;1.38;;;49.20;24.30;;;;;;5072086;28;20274;-63
2022/07/18 08:12:39;;;;;;;4.72;1.30;;;49.00;24.40;;;;;;5072235;28;20614;-63
2022/07/18 08:15:09;;;;;;;5.55;1.02;;;48.70;24.50;;;;;;5072177;28;20234;-64
2022/07/18 08:17:36;;;;;;;3.60;1.10;;;48.50;24.50;;;;;;5072048;28;20744;-63
2022/07/18 08:20:04;;;;;;;1.08;0.85;;;48.40;24.60;;;;;;5072151;28;20585;-63
2022/07/18 08:22:30;;;;;;;1.48;0.90;;;48.30;24.50;;;;;;5072230;28;20273;-63
2022/07/18 08:24:57;;;;;;;1.23;1.10;;;46.90;25.20;;;;;;5072541;28;20200;-63
2022/07/18 08:27:24;;;;;;;3.15;1.10;;;44.40;26.40;;;;;;5072079;28;20216;-63
2022/07/18 08:29:50;;;;;;;4.20;1.40;;;43.50;26.70;;;;;;5071544;28;20723;-63
2022/07/18 08:32:18;;;;;;;2.10;0.93;;;43.90;26.40;;;;;;5072075;28;20578;-63
2022/07/18 08:34:45;;;;;;;3.13;1.15;;;44.60;26.10;;;;;;5072191;28;20619;-62
2022/07/18 08:37:12;;;;;;;1.73;1.02;;;45.10;25.70;;;;;;5072136;28;20208;-63
2022/07/18 08:39:38;;;;;;;1.95;1.08;;;45.80;25.50;;;;;;5071818;28;20236;-63
2022/07/18 08:42:07;;;;;;;1.80;1.27;;;46.00;25.20;;;;;;5072062;28;20226;-63
2022/07/18 08:44:36;;;;;;;2.95;1.30;;;46.10;25.30;;;;;;5071865;28;20204;-63
2022/07/18 08:47:05;;;;;;;10.30;1.95;;;46.00;25.40;;;;;;5072010;28;20216;-63
2022/07/18 08:49:35;;;;;;;7.93;1.35;;;45.70;25.40;;;;;;5071479;28;20228;-63
2022/07/18 08:52:03;;;;;;;2.90;1.40;;;44.60;26.10;;;;;;5071996;28;20204;-63
2022/07/18 08:54:30;;;;;;;5.05;1.30;;;43.30;26.50;;;;;;5071492;28;20216;-62
2022/07/18 08:56:57;;;;;;;4.63;1.60;;;41.40;27.30;;;;;;5071581;28;20254;-62
2022/07/18 08:59:23;;;;;;;2.70;1.15;;;39.00;29.20;;;;;;5071691;28;20221;-62
2022/07/18 09:01:50;;;;;;;3.08;1.40;;;37.10;29.90;;;;;;5071746;28;20258;-62
2022/07/18 09:04:33;;;;;;;2.80;1.20;;;36.00;30.80;;;;;;5072088;28;20201;-62
2022/07/18 09:07:00;;;;;;;2.53;1.20;;;34.70;31.90;;;;;;5071842;28;20262;-62
2022/07/18 09:09:27;;;;;;;2.80;1.60;;;33.80;33.60;;;;;;5071503;28;20258;-62
2022/07/18 09:11:55;;;;;;;1.63;1.20;;;33.00;34.20;;;;;;5071896;28;20200;-63
2022/07/18 09:14:30;;;;;;;1.48;1.25;;;32.50;34.80;;;;;;5071720;28;20201;-62
2022/07/18 09:17:05;;;;;;;6.22;1.30;;;32.10;35.30;;;;;;5071452;28;20208;-62
2022/07/18 09:19:34;;;;;;;3.60;1.48;;;31.70;35.50;;;;;;5071218;28;20640;-62
2022/07/18 09:22:18;;;;;;;2.42;1.40;;;31.20;36.00;;;;;;5071235;28;20212;-61
2022/07/18 09:25:00;;;;;;;3.65;1.20;;;31.00;36.10;;;;;;5071920;28;20214;-62
2022/07/18 09:27:35;;;;;;;6.38;1.38;;;30.70;35.90;;;;;;5071515;28;20300;-61
2022/07/18 09:30:18;;;;;;;3.53;1.30;;;30.50;36.60;;;;;;5071602;28;20228;-62
2022/07/18 09:32:47;;;;;;;2.00;1.17;;;30.30;37.00;;;;;;5071770;28;20690;-63
2022/07/18 09:35:17;;;;;;;1.90;1.50;;;30.30;36.80;;;;;;5071779;28;20208;-62
2022/07/18 09:37:54;;;;;;;6.82;1.70;;;30.20;36.30;;;;;;5072036;28;20229;-62
2022/07/18 09:40:23;;;;;;;4.13;1.42;;;30.10;36.80;;;;;;5071475;28;20200;-62
2022/07/18 09:42:51;;;;;;;4.40;1.30;;;30.10;37.00;;;;;;5071560;28;20237;-63
2022/07/18 09:45:23;;;;;;;4.80;1.42;;;30.30;36.70;;;;;;5071480;28;20241;-62
2022/07/18 09:47:51;;;;;;;5.93;1.60;;;30.30;36.90;;;;;;5095841;22;20270;-63
2022/07/18 09:50:31;;;;;;;4.10;1.30;;;30.30;36.40;;;;;;5051944;28;20226;-63
2022/07/18 09:53:03;;;;;;;4.15;1.40;;;30.30;35.90;;;;;;5052362;28;20206;-63
2022/07/18 09:55:30;;;;;;;4.80;1.20;;;30.30;36.50;;;;;;5052261;28;20209;-63
2022/07/18 09:58:01;;;;;;;5.32;1.45;;;30.30;36.40;;;;;;5052077;28;20209;-63
2022/07/18 10:00:28;;;;;;;2.45;1.13;;;30.40;36.30;;;;;;5052050;28;20217;-63
2022/07/18 10:02:55;;;;;;;2.08;1.40;;;30.50;36.20;;;;;;5052447;28;20232;-63
2022/07/18 10:05:23;;;;;;;2.78;1.30;;;30.60;35.90;;;;;;5052278;28;20673;-63
2022/07/18 10:07:50;;;;;;;1.85;1.10;;;30.60;36.00;;;;;;5055088;28;20669;-63
2022/07/18 10:10:18;;;;;;;1.33;1.10;;;30.50;36.10;;;;;;5055696;28;20221;-64
2022/07/18 10:12:45;;;;;;;2.40;1.10;;;30.40;36.50;;;;;;5056112;28;20210;-64
2022/07/18 10:15:11;;;;;;;2.25;1.33;;;30.40;36.80;;;;;;5055680;28;20213;-64
2022/07/18 10:17:38;;;;;;;5.22;1.50;;;30.40;36.90;;;;;;5055568;28;20240;-64
2022/07/18 10:20:06;;;;;;;0.95;0.90;;;30.50;36.60;;;;;;5055040;28;20598;-64
2022/07/18 10:22:38;;;;;;;3.33;1.60;;;30.60;36.60;;;;;;5055219;28;20205;-66
2022/07/18 10:25:06;;;;;;;2.95;1.70;;;30.80;38.00;;;;;;5055507;28;20217;-64
2022/07/18 10:27:49;;;;;;;3.22;1.42;;;30.90;37.70;;;;;;5055436;28;20677;-63
2022/07/18 10:30:16;;;;;;;2.55;1.40;;;31.20;37.70;;;;;;5054756;28;20221;-63
2022/07/18 10:32:43;;;;;;;2.03;1.05;;;31.30;37.40;;;;;;5054656;28;20210;-63
2022/07/18 10:35:11;;;;;;;4.22;1.52;;;31.40;37.60;;;;;;5054507;28;20206;-63
2022/07/18 10:37:40;;;;;;;2.40;1.08;;;31.50;37.50;;;;;;5054821;28;20229;-63
2022/07/18 10:40:25;;;;;;;3.10;1.65;;;31.60;37.20;;;;;;5054217;28;20207;-63
2022/07/18 10:43:37;;;;;;;1.23;1.13;;;31.60;37.20;;;;;;5055166;28;20251;-63
2022/07/18 10:46:06;;;;;;;4.47;1.75;;;31.60;37.10;;;;;;5006987;28;20209;-64
2022/07/18 10:48:50;;;;;;;3.08;1.50;;;31.60;37.60;;;;;;5054354;28;20249;-63
2022/07/18 10:51:18;;;;;;;3.97;1.60;;;31.70;37.50;;;;;;5054234;28;20264;-63
2022/07/18 10:54:13;;;;;;;2.22;1.30;;;31.70;37.30;;;;;;5054304;28;20206;-63
2022/07/18 10:57:06;;;;;;;1.38;1.20;;;31.70;37.00;;;;;;5008065;28;20208;-63
2022/07/18 10:59:34;;;;;;;1.17;1.00;;;31.60;37.20;;;;;;5054461;28;20309;-64
2022/07/18 11:02:05;;;;;;;3.08;1.60;;;31.60;37.10;;;;;;5054091;28;20209;-63
2022/07/18 11:04:35;;;;;;;3.13;1.30;;;31.50;37.20;;;;;;5054354;28;20228;-63
2022/07/18 11:07:05;;;;;;;1.95;1.33;;;31.40;37.40;;;;;;5054631;28;20205;-61
2022/07/18 11:09:40;;;;;;;7.53;1.40;;;31.50;37.20;;;;;;5054418;28;20236;-63
2022/07/18 11:12:23;;;;;;;2.20;1.42;;;31.50;37.50;;;;;;5054345;28;20599;-62
2022/07/18 11:15:08;;;;;;;1.48;1.25;;;31.60;37.10;;;;;;5052347;28;20216;-63
2022/07/18 11:18:14;;;;;;;1.33;1.23;;;31.60;36.90;;;;;;5053414;28;20210;-63
2022/07/18 11:20:42;;;;;;;1.50;0.90;;;31.70;36.70;;;;;;5053658;28;20197;-62
2022/07/18 11:23:20;;;;;;;6.55;1.52;;;31.90;35.00;;;;;;5053720;28;20657;-63
2022/07/18 11:25:50;;;;;;;1.48;1.08;;;32.00;34.60;;;;;;5053661;28;20205;-63
2022/07/18 11:28:18;;;;;;;3.08;1.50;;;32.00;35.40;;;;;;5053678;28;20221;-62
2022/07/18 11:30:45;;;;;;;2.50;2.03;;;31.90;35.80;;;;;;5053454;28;20320;-63
2022/07/18 11:33:22;;;;;;;2.15;1.25;;;32.00;35.90;;;;;;5053864;28;20209;-61
2022/07/18 11:35:50;;;;;;;1.40;1.30;;;32.00;35.80;;;;;;5054091;28;20236;-62
2022/07/18 11:38:17;;;;;;;2.08;1.23;;;32.10;35.80;;;;;;5054476;28;20231;-63
2022/07/18 11:40:52;;;;;;;2.85;1.10;;;32.20;36.00;;;;;;5053508;28;20212;-63
2022/07/18 11:43:23;;;;;;;1.63;1.33;;;32.40;35.90;;;;;;5054782;28;20205;-62
2022/07/18 11:46:01;;;;;;;3.22;1.50;;;32.50;35.40;;;;;;5055802;28;20210;-64
2022/07/18 11:48:28;;;;;;;3.20;1.50;;;32.60;35.60;;;;;;5053547;28;20328;-63
2022/07/18 11:50:55;;;;;;;1.77;1.40;;;32.60;35.40;;;;;;5052897;28;20847;-63
2022/07/18 11:53:21;;;;;;;1.75;1.20;;;32.50;35.70;;;;;;5053071;28;20213;-63
2022/07/18 11:55:50;;;;;;;1.58;1.02;;;32.50;35.40;;;;;;5053036;28;20201;-63
2022/07/18 11:58:18;;;;;;;2.45;1.20;;;32.60;35.10;;;;;;5054286;28;20226;-63
2022/07/18 12:00:46;;;;;;;1.60;1.30;;;32.60;35.00;;;;;;5053868;28;20244;-63
2022/07/18 12:03:14;;;;;;;1.98;1.38;;;32.70;35.10;;;;;;5054228;28;20202;-63
2022/07/18 12:05:44;;;;;;;4.13;1.30;;;32.70;35.30;;;;;;5053904;28;20216;-64
2022/07/18 12:08:28;;;;;;;1.85;1.20;;;32.70;35.90;;;;;;5053341;28;20226;-63
2022/07/18 12:11:07;;;;;;;2.92;1.20;;;32.60;36.20;;;;;;5052807;28;20472;-62
2022/07/18 12:13:42;;;;;;;3.08;1.25;;;32.80;35.60;;;;;;5053072;28;20630;-63
2022/07/18 12:16:09;;;;;;;5.10;1.40;;;32.80;35.40;;;;;;5053266;28;20251;-64
2022/07/18 12:18:36;;;;;;;1.83;1.10;;;32.70;35.50;;;;;;5052660;28;20256;-63
2022/07/18 12:21:09;;;;;;;3.83;1.38;;;32.80;35.10;;;;;;5052412;28;20643;-62
2022/07/18 12:23:36;;;;;;;1.55;1.20;;;32.90;35.90;;;;;;5053236;28;20255;-63
2022/07/18 12:26:03;;;;;;;1.75;1.15;;;32.90;35.30;;;;;;5054621;28;20205;-62
2022/07/18 12:28:31;;;;;;;2.85;1.38;;;33.00;35.50;;;;;;5054334;28;20222;-63
2022/07/18 12:30:57;;;;;;;2.53;1.33;;;33.20;35.40;;;;;;5052756;28;20352;-63
2022/07/18 12:33:24;;;;;;;3.53;1.50;;;33.40;34.70;;;;;;5053113;28;20210;-62
2022/07/18 12:35:57;;;;;;;2.25;1.30;;;33.50;34.80;;;;;;5052677;28;20209;-62
2022/07/18 12:38:24;;;;;;;2.00;1.50;;;33.50;34.80;;;;;;5052924;28;20225;-63
2022/07/18 12:40:53;;;;;;;2.03;1.40;;;33.60;34.70;;;;;;5052600;28;20293;-63
2022/07/18 12:43:25;;;;;;;3.30;1.20;;;33.60;34.70;;;;;;5052418;28;20583;-63
2022/07/18 12:45:56;;;;;;;1.65;1.38;;;33.70;34.60;;;;;;5052410;28;20210;-64
2022/07/18 12:48:23;;;;;;;4.65;1.40;;;33.80;34.50;;;;;;5052327;28;20472;-62
2022/07/18 12:50:58;;;;;;;3.63;1.48;;;34.00;34.30;;;;;;5052193;28;20229;-63
2022/07/18 12:53:25;;;;;;;2.05;1.30;;;34.20;34.10;;;;;;5052564;28;20479;-63
2022/07/18 12:55:51;;;;;;;1.67;1.17;;;34.30;33.80;;;;;;5052348;28;20213;-62
2022/07/18 12:58:18;;;;;;;4.20;1.30;;;34.40;33.60;;;;;;5052128;28;20225;-63